Time;durP1;ratioP1;P1;durP2;ratioP2;P2;SDS_P1;SDS_P2;PMS_P1;PMS_P2;Temp;Humidity;BMP_temperature;BMP_pressure;BME280_temperature;BME280_humidity;BME280_pressure;Samples;Min_cycle;Max_cycle;Signal;HPM_P1;HPM_P2
2023/08/01 00:00:46;;;;;;;5.20;2.85;;;20.40;68.80;;;19.32;87.53;95199.00;4937833;28;20063;-71
2023/08/01 00:03:13;;;;;;;4.03;2.60;;;20.40;69.20;;;19.33;88.03;95189.94;4971304;28;20125;-71
2023/08/01 00:05:44;;;;;;;5.03;3.03;;;20.40;69.70;;;19.30;88.94;95195.81;4968052;28;20027;-72
2023/08/01 00:08:13;;;;;;;4.80;3.13;;;20.30;70.00;;;19.27;90.75;95191.81;4956639;28;20034;-72
2023/08/01 00:10:42;;;;;;;5.78;2.92;;;20.30;70.50;;;19.25;91.06;95183.28;4955181;28;20026;-71
2023/08/01 00:13:08;;;;;;;5.93;2.85;;;20.20;71.00;;;19.23;90.69;95174.72;4954635;28;20042;-71
2023/08/01 00:15:34;;;;;;;4.38;2.55;;;20.20;70.80;;;19.21;91.47;95170.72;4964107;28;20037;-71
2023/08/01 00:18:00;;;;;;;6.30;2.88;;;20.20;71.00;;;19.18;91.52;95172.03;4953127;28;20374;-71
2023/08/01 00:20:26;;;;;;;6.82;2.83;;;20.10;70.70;;;19.13;90.75;95172.03;4950171;28;20201;-71
2023/08/01 00:22:51;;;;;;;3.60;2.90;;;20.10;70.10;;;19.12;91.16;95165.13;4948997;28;20488;-71
2023/08/01 00:25:18;;;;;;;6.68;3.42;;;20.10;70.60;;;19.12;90.96;95166.97;4952744;28;20451;-71
2023/08/01 00:27:43;;;;;;;4.53;3.03;;;20.10;70.80;;;19.11;91.96;95160.06;4970497;28;20498;-71
2023/08/01 00:30:09;;;;;;;7.00;3.00;;;20.10;70.90;;;19.06;91.77;95144.06;4970345;28;20073;-71
2023/08/01 00:32:36;;;;;;;6.10;2.88;;;20.10;70.90;;;19.06;92.39;95146.72;4967554;28;20031;-71
2023/08/01 00:35:02;;;;;;;3.88;2.60;;;20.10;70.60;;;19.06;92.27;95147.53;4952264;28;20030;-71
2023/08/01 00:37:28;;;;;;;4.53;2.83;;;20.10;70.40;;;19.06;91.58;95146.72;4969051;28;20101;-71
2023/08/01 00:39:54;;;;;;;6.07;2.70;;;20.10;70.10;;;19.05;91.18;95137.13;4952317;28;20039;-71
2023/08/01 00:42:19;;;;;;;4.53;2.92;;;20.10;70.10;;;19.05;90.40;95135.28;4969502;28;20070;-71
2023/08/01 00:44:47;;;;;;;3.85;2.50;;;20.10;69.80;;;19.05;90.34;95135.28;4956439;28;20109;-71
2023/08/01 00:47:13;;;;;;;5.32;2.63;;;20.10;69.20;;;19.04;89.78;95119.53;4956107;28;20325;-71
2023/08/01 00:49:39;;;;;;;7.10;2.95;;;20.10;69.10;;;19.04;88.41;95114.22;4972699;28;20140;-71
2023/08/01 00:52:06;;;;;;;4.32;2.60;;;20.10;68.10;;;19.03;86.94;95115.28;4969358;28;20037;-71
2023/08/01 00:54:36;;;;;;;5.10;2.33;;;20.10;67.50;;;19.04;86.65;95104.34;4965745;28;20046;-71
2023/08/01 00:57:05;;;;;;;4.55;2.80;;;20.00;67.60;;;19.03;87.16;95109.94;4952964;28;20093;-71
2023/08/01 00:59:31;;;;;;;4.75;2.88;;;20.00;67.70;;;19.02;86.17;95097.69;4958298;28;20039;-72
2023/08/01 01:01:57;;;;;;;4.55;2.67;;;20.00;67.50;;;19.00;85.38;95105.13;4949152;28;20505;-72
2023/08/01 01:04:23;;;;;;;3.72;2.42;;;19.90;66.50;;;18.97;84.91;95095.78;4952952;28;20042;-71
2023/08/01 01:06:59;;;;;;;4.78;2.53;;;19.90;67.00;;;18.94;84.77;95089.13;4953602;28;20080;-71
2023/08/01 01:09:31;;;;;;;4.03;2.53;;;19.90;66.80;;;18.88;84.82;95087.53;4954215;28;20026;-71
2023/08/01 01:11:57;;;;;;;3.45;2.40;;;19.80;66.70;;;18.88;84.13;95090.22;4954709;28;20030;-72
2023/08/01 01:14:23;;;;;;;3.58;2.40;;;19.80;66.70;;;18.86;84.62;95073.69;4953345;28;20644;-70
2023/08/01 01:16:48;;;;;;;4.00;2.40;;;19.80;66.60;;;18.86;84.47;95068.38;4985919;28;20117;-71
2023/08/01 01:19:15;;;;;;;5.95;2.60;;;19.80;66.80;;;18.87;84.85;95072.63;4952942;28;20118;-71
2023/08/01 01:21:41;;;;;;;6.72;2.45;;;19.80;67.20;;;18.85;84.70;95066.75;4967978;28;20042;-72
2023/08/01 01:24:09;;;;;;;5.78;2.53;;;19.80;67.10;;;18.84;83.98;95059.84;4952496;28;20037;-70
2023/08/01 01:26:34;;;;;;;3.85;2.40;;;19.80;66.90;;;18.86;84.85;95056.91;4966571;28;20022;-71
2023/08/01 01:29:01;;;;;;;4.47;2.75;;;19.80;66.90;;;18.84;83.93;95059.03;4988140;28;20045;-71
2023/08/01 01:31:27;;;;;;;5.50;2.60;;;19.80;66.70;;;18.84;84.30;95067.03;4983640;28;20062;-71
2023/08/01 01:33:53;;;;;;;4.30;2.88;;;19.80;66.80;;;18.82;83.95;95067.28;4960002;28;20030;-71
2023/08/01 01:36:19;;;;;;;3.78;2.63;;;19.80;67.20;;;18.82;84.40;95067.28;4974620;28;20108;-71
2023/08/01 01:38:45;;;;;;;4.47;2.60;;;19.80;67.10;;;18.82;85.25;95061.97;4972558;28;20364;-71
2023/08/01 01:41:11;;;;;;;4.00;2.42;;;19.80;67.80;;;18.81;84.75;95047.06;4969932;28;20409;-72
2023/08/01 01:43:37;;;;;;;3.22;2.30;;;19.70;67.40;;;18.81;85.95;95060.38;4974708;28;20405;-72
2023/08/01 01:46:04;;;;;;;4.30;2.90;;;19.80;68.60;;;18.82;86.21;95056.63;4954220;28;20050;-70
2023/08/01 01:48:29;;;;;;;4.97;2.75;;;19.80;67.80;;;18.82;86.35;95045.97;4957366;28;20034;-71
2023/08/01 01:50:55;;;;;;;5.72;2.80;;;19.80;68.30;;;18.77;85.95;95037.97;4987991;28;20389;-71
2023/08/01 01:53:21;;;;;;;5.13;2.80;;;19.80;67.40;;;18.77;85.42;95043.28;4956886;28;20085;-72
2023/08/01 01:55:46;;;;;;;5.30;2.78;;;19.70;67.10;;;18.75;84.40;95031.31;4969901;28;20233;-72
2023/08/01 01:58:12;;;;;;;4.28;2.63;;;19.70;66.50;;;18.70;83.96;95020.66;4971035;28;20046;-71
2023/08/01 02:00:38;;;;;;;5.28;2.47;;;19.60;66.40;;;18.69;83.56;95027.84;4975283;28;20157;-71
2023/08/01 02:03:04;;;;;;;4.65;2.85;;;19.60;66.30;;;18.66;82.89;95028.38;4957192;28;20130;-72
2023/08/01 02:05:30;;;;;;;4.65;2.75;;;19.60;65.60;;;18.66;82.93;95005.22;4990489;28;20142;-72
2023/08/01 02:07:56;;;;;;;4.25;2.67;;;19.60;65.50;;;18.68;82.42;95010.28;4977372;28;21081;-72
2023/08/01 02:10:21;;;;;;;4.53;2.90;;;19.70;65.60;;;18.70;82.63;95000.16;4958492;28;20472;-72
2023/08/01 02:12:47;;;;;;;4.00;2.75;;;19.70;65.30;;;18.71;81.24;95001.75;4959782;28;20555;-72
2023/08/01 02:15:13;;;;;;;3.35;2.60;;;19.70;65.30;;;18.71;82.97;95001.75;4955394;28;20077;-71
2023/08/01 02:17:39;;;;;;;5.03;2.97;;;19.80;67.00;;;18.73;83.61;94994.28;4973135;28;20129;-72
2023/08/01 02:20:06;;;;;;;4.63;2.70;;;19.80;67.10;;;18.74;84.70;95001.22;4954675;28;20034;-70
2023/08/01 02:22:32;;;;;;;5.60;2.95;;;19.80;67.20;;;18.74;85.09;94995.06;4956296;28;20477;-73
2023/08/01 02:24:58;;;;;;;3.97;2.50;;;19.80;67.70;;;18.76;85.88;94993.75;4971131;28;20083;-72
2023/08/01 02:27:24;;;;;;;4.80;2.72;;;19.90;68.00;;;18.77;85.96;94991.88;4957777;28;20061;-72
2023/08/01 02:29:50;;;;;;;3.80;2.58;;;19.80;67.70;;;18.77;85.67;94983.88;4976924;28;20114;-72
2023/08/01 02:32:16;;;;;;;4.75;2.97;;;19.90;67.60;;;18.74;85.08;94985.22;4957585;28;20070;-72
2023/08/01 02:34:42;;;;;;;4.03;2.47;;;19.80;66.70;;;18.76;85.82;94980.44;4988650;28;20509;-72
2023/08/01 02:37:08;;;;;;;5.15;2.80;;;19.90;67.60;;;18.76;86.91;94976.97;4973628;28;20125;-72
2023/08/01 02:39:35;;;;;;;4.10;2.80;;;19.90;68.30;;;18.76;87.92;94972.44;4955971;28;20153;-71
2023/08/01 02:42:01;;;;;;;4.93;2.67;;;19.80;69.00;;;18.73;86.86;94970.31;4939650;28;20122;-72
2023/08/01 02:44:26;;;;;;;4.63;2.58;;;19.80;67.80;;;18.74;86.58;94974.56;4956104;28;20121;-69
2023/08/01 02:46:55;;;;;;;4.75;2.78;;;19.80;68.30;;;18.74;87.05;94973.78;4972970;28;20034;-71
2023/08/01 02:49:21;;;;;;;4.20;2.45;;;19.80;68.30;;;18.74;87.22;94974.56;4950964;28;20038;-70
2023/08/01 02:51:47;;;;;;;4.38;2.55;;;19.80;67.80;;;18.75;86.41;94978.03;4971148;28;20117;-68
2023/08/01 02:54:12;;;;;;;3.83;2.72;;;19.80;67.80;;;18.74;86.68;94979.91;4952803;28;20538;-71
2023/08/01 02:56:40;;;;;;;4.18;2.70;;;19.80;66.80;;;18.72;85.38;94979.38;4954426;28;20826;-71
2023/08/01 02:59:08;;;;;;;4.32;2.80;;;19.70;66.40;;;18.72;84.32;94975.91;4954756;28;20043;-71
2023/08/01 03:01:37;;;;;;;5.32;2.67;;;19.70;66.30;;;18.69;85.14;94974.56;4954908;28;20040;-71
2023/08/01 03:04:04;;;;;;;3.75;2.85;;;19.70;66.80;;;18.66;84.84;94989.22;4958078;28;20042;-71
2023/08/01 03:06:31;;;;;;;5.50;2.80;;;19.60;67.30;;;18.63;85.05;94999.63;4966268;28;20038;-70
2023/08/01 03:08:57;;;;;;;5.35;2.83;;;19.60;67.80;;;18.60;85.96;95000.94;4966912;28;20164;-71
2023/08/01 03:11:23;;;;;;;5.50;2.80;;;19.60;67.80;;;18.58;86.14;94996.94;4952838;28;20134;-71
2023/08/01 03:13:48;;;;;;;3.47;2.60;;;19.60;68.00;;;18.58;87.07;95003.06;4954738;28;20061;-71
2023/08/01 03:16:14;;;;;;;4.47;3.03;;;19.50;68.80;;;18.53;86.47;95010.22;4967780;28;20474;-71
2023/08/01 03:18:40;;;;;;;5.85;3.53;;;19.50;68.50;;;18.51;87.88;95013.16;4968822;28;20450;-71
2023/08/01 03:21:06;;;;;;;4.78;3.38;;;19.40;69.40;;;18.46;88.47;95020.34;4967496;28;20076;-71
2023/08/01 03:23:31;;;;;;;3.58;2.80;;;19.40;69.90;;;18.42;88.59;95008.63;4971707;28;20042;-70
2023/08/01 03:25:57;;;;;;;4.72;2.75;;;19.30;70.10;;;18.41;89.39;95018.47;4965473;28;20480;-72
2023/08/01 03:28:25;;;;;;;5.70;3.03;;;19.40;70.40;;;18.41;90.64;95009.69;4952740;28;20027;-71
2023/08/01 03:30:53;;;;;;;4.05;2.83;;;19.30;71.00;;;18.34;91.73;95013.41;4970916;28;20506;-70
2023/08/01 03:33:19;;;;;;;4.85;2.90;;;19.20;71.50;;;18.33;92.73;95009.16;4968803;28;20510;-70
2023/08/01 03:35:45;;;;;;;5.13;3.35;;;19.30;72.30;;;18.30;93.18;95014.97;4968402;28;20386;-71
2023/08/01 03:38:11;;;;;;;5.60;2.88;;;19.10;72.10;;;18.26;94.58;95008.59;4967805;28;20069;-70
2023/08/01 03:40:36;;;;;;;6.13;3.40;;;19.10;72.90;;;18.24;96.33;95010.72;4953675;28;20130;-70
2023/08/01 03:43:02;;;;;;;5.47;3.35;;;19.10;73.80;;;18.22;96.36;95012.84;4973110;28;20211;-71
2023/08/01 03:45:28;;;;;;;6.93;3.40;;;19.10;73.60;;;18.18;97.51;95013.63;4970602;28;20109;-71
2023/08/01 03:47:54;;;;;;;4.95;3.28;;;19.10;74.00;;;18.15;97.56;95014.16;4986621;28;20109;-71
2023/08/01 03:50:20;;;;;;;5.28;3.05;;;19.00;74.10;;;18.13;98.67;95016.28;4984980;28;20126;-70
2023/08/01 03:52:45;;;;;;;4.30;2.67;;;19.10;74.30;;;18.09;99.34;95021.31;4970182;28;20041;-71
2023/08/01 03:55:11;;;;;;;6.00;3.40;;;19.00;74.20;;;18.06;99.37;95027.16;4966812;28;20416;-70
2023/08/01 03:57:38;;;;;;;5.15;3.25;;;18.90;75.30;;;18.02;100.00;95020.78;4951040;28;20505;-69
2023/08/01 04:00:06;;;;;;;5.07;3.28;;;19.00;75.10;;;18.00;100.00;95020.25;4965940;28;20529;-71
2023/08/01 04:02:32;;;;;;;6.32;3.35;;;19.00;75.30;;;17.97;100.00;95029.53;4969048;28;20441;-69
2023/08/01 04:04:58;;;;;;;4.97;3.33;;;18.90;75.80;;;17.95;100.00;95022.88;4986147;28;20117;-71
2023/08/01 04:07:23;;;;;;;11.27;3.40;;;18.80;76.40;;;17.90;100.00;95033.53;4969459;28;20174;-71
2023/08/01 04:09:49;;;;;;;5.90;3.40;;;18.80;76.90;;;17.89;100.00;95026.59;4970979;28;20389;-70
2023/08/01 04:12:15;;;;;;;4.38;3.13;;;18.90;76.60;;;17.85;100.00;95026.28;4951897;28;20027;-69
2023/08/01 04:14:42;;;;;;;5.53;3.78;;;18.80;77.10;;;17.83;100.00;95019.63;4939480;28;20061;-69
2023/08/01 04:17:07;;;;;;;6.13;3.90;;;18.80;77.30;;;17.82;100.00;95026.03;4953167;28;20035;-71
2023/08/01 04:19:33;;;;;;;7.55;3.92;;;18.80;77.70;;;17.78;100.00;95019.63;4969804;28;20388;-71
2023/08/01 04:21:59;;;;;;;6.50;3.47;;;18.80;77.40;;;17.75;100.00;95021.75;4985591;28;20117;-69
2023/08/01 04:24:25;;;;;;;5.30;3.45;;;18.80;77.90;;;17.72;100.00;95026.78;4954418;28;20169;-70
2023/08/01 04:26:51;;;;;;;4.70;3.55;;;18.80;77.60;;;17.72;100.00;95029.44;4970903;28;20113;-70
2023/08/01 04:29:17;;;;;;;6.32;4.00;;;18.80;78.30;;;17.69;100.00;95028.13;4968278;28;20486;-70
2023/08/01 04:31:43;;;;;;;7.20;3.65;;;18.80;78.30;;;17.67;100.00;95030.22;4971267;28;20030;-69
2023/08/01 04:34:09;;;;;;;6.15;3.80;;;18.70;77.80;;;17.60;100.00;95016.31;4969750;28;20121;-70
2023/08/01 04:36:35;;;;;;;6.28;3.88;;;18.60;78.50;;;17.59;100.00;95022.69;4969366;28;20022;-70
2023/08/01 04:39:00;;;;;;;6.95;3.97;;;18.60;78.90;;;17.56;100.00;95028.53;4987109;28;20206;-70
2023/08/01 04:41:27;;;;;;;6.85;4.20;;;18.60;79.50;;;17.54;100.00;95014.72;4970177;28;20088;-70
2023/08/01 04:43:53;;;;;;;6.25;3.50;;;18.60;79.60;;;17.53;100.00;95004.34;4986411;28;20092;-70
2023/08/01 04:46:19;;;;;;;10.95;3.95;;;18.60;79.10;;;17.54;100.00;95004.06;4970206;28;20439;-70
2023/08/01 04:48:45;;;;;;;6.38;4.03;;;18.60;79.60;;;17.52;100.00;95000.88;4969684;28;20141;-71
2023/08/01 04:51:10;;;;;;;7.25;4.30;;;18.60;79.90;;;17.50;100.00;94992.34;4967423;28;20051;-69
2023/08/01 04:53:36;;;;;;;6.55;4.05;;;18.60;79.70;;;17.47;100.00;94987.56;4968982;28;20466;-70
2023/08/01 04:56:02;;;;;;;6.47;3.83;;;18.50;79.40;;;17.43;100.00;94981.16;4969440;28;20496;-68
2023/08/01 04:58:28;;;;;;;6.78;4.00;;;18.50;79.80;;;17.42;100.00;94990.16;4986603;28;20074;-71
2023/08/01 05:00:53;;;;;;;5.68;3.90;;;18.50;80.00;;;17.35;100.00;94966.50;4981245;28;20177;-69
2023/08/01 05:03:19;;;;;;;8.50;4.32;;;18.40;80.20;;;17.35;100.00;94971.81;4975549;28;20046;-70
2023/08/01 05:05:45;;;;;;;7.20;3.85;;;18.30;80.50;;;17.34;100.00;94966.75;4952446;28;20070;-69
2023/08/01 05:08:10;;;;;;;6.07;4.03;;;18.30;80.60;;;17.30;100.00;94965.69;4952023;28;20053;-69
2023/08/01 05:10:36;;;;;;;8.43;4.53;;;18.30;80.80;;;17.30;100.00;94971.78;4959588;28;20117;-70
2023/08/01 05:13:02;;;;;;;6.10;4.10;;;18.30;80.90;;;17.31;100.00;94957.44;4968758;28;20035;-70
2023/08/01 05:15:28;;;;;;;8.10;4.43;;;18.40;81.00;;;17.31;100.00;94951.31;4943524;28;20137;-70
2023/08/01 05:17:55;;;;;;;6.18;4.30;;;18.40;81.10;;;17.31;100.00;94961.97;4967410;28;20051;-70
2023/08/01 05:20:21;;;;;;;5.65;4.03;;;18.40;80.80;;;17.30;100.00;94957.69;4969270;28;20532;-70
2023/08/01 05:22:47;;;;;;;7.28;4.43;;;18.30;81.00;;;17.27;100.00;94955.56;4951761;28;20074;-71
2023/08/01 05:25:13;;;;;;;8.88;4.18;;;18.30;81.00;;;17.28;100.00;94946.53;4940061;28;20500;-69
2023/08/01 05:27:38;;;;;;;5.10;4.00;;;18.30;81.00;;;17.23;100.00;94952.63;4952323;28;20170;-70
2023/08/01 05:30:05;;;;;;;7.50;4.20;;;18.20;81.10;;;17.22;100.00;94952.88;4953866;28;20134;-70
2023/08/01 05:32:30;;;;;;;6.85;3.80;;;18.20;81.30;;;17.21;100.00;94951.28;4969935;28;20026;-70
2023/08/01 05:34:56;;;;;;;7.20;4.18;;;18.20;80.90;;;17.15;100.00;94951.25;4968898;28;20104;-71
2023/08/01 05:37:22;;;;;;;8.23;4.35;;;18.10;81.00;;;17.18;100.00;94965.88;4968797;28;20168;-69
2023/08/01 05:39:48;;;;;;;6.07;4.22;;;18.20;80.90;;;17.17;100.00;94966.94;4954402;28;20037;-70
2023/08/01 05:42:13;;;;;;;5.78;3.90;;;18.20;81.10;;;17.18;100.00;94962.41;4953658;28;20042;-69
2023/08/01 05:44:39;;;;;;;4.80;3.90;;;18.20;81.50;;;17.18;100.00;94968.53;4970060;28;20568;-71
2023/08/01 05:47:05;;;;;;;7.10;4.78;;;18.20;81.40;;;17.18;100.00;94960.56;4986699;28;20058;-71
2023/08/01 05:49:34;;;;;;;6.90;4.30;;;18.30;81.50;;;17.18;100.00;94970.38;4967777;28;20085;-70
2023/08/01 05:52:00;;;;;;;5.30;3.92;;;18.30;81.10;;;17.18;100.00;94957.91;4967952;28;20505;-69
2023/08/01 05:54:26;;;;;;;8.73;4.47;;;18.30;81.10;;;17.22;100.00;94959.00;4949630;28;20042;-71
2023/08/01 05:56:52;;;;;;;5.63;4.00;;;18.40;81.50;;;17.26;100.00;94948.66;4955909;28;20105;-71
2023/08/01 05:59:18;;;;;;;6.57;4.25;;;18.40;81.10;;;17.27;100.00;94951.06;4969089;28;20445;-71
2023/08/01 06:01:44;;;;;;;9.02;4.20;;;18.30;81.00;;;17.29;100.00;94953.44;4953648;28;20185;-71
2023/08/01 06:04:09;;;;;;;6.68;4.20;;;18.40;81.10;;;17.28;100.00;94942.03;4973700;28;20043;-71
2023/08/01 06:06:35;;;;;;;7.88;4.18;;;18.40;80.90;;;17.30;100.00;94928.47;4955006;28;20089;-70
2023/08/01 06:09:01;;;;;;;6.82;4.22;;;18.50;80.90;;;17.36;100.00;94922.09;4986399;28;20057;-71
2023/08/01 06:11:27;;;;;;;6.57;4.32;;;18.50;80.80;;;17.39;100.00;94926.91;4968247;28;20065;-71
2023/08/01 06:13:53;;;;;;;6.63;4.22;;;18.60;80.60;;;17.40;100.00;94913.34;4953697;28;20035;-70
2023/08/01 06:16:19;;;;;;;7.60;3.85;;;18.60;80.50;;;17.44;100.00;94903.03;4955396;28;20069;-70
2023/08/01 06:18:45;;;;;;;6.30;3.90;;;18.60;79.80;;;17.44;100.00;94897.69;4955947;28;20149;-70
2023/08/01 06:21:10;;;;;;;6.68;4.57;;;18.60;80.30;;;17.45;100.00;94886.00;4955462;28;20125;-71
2023/08/01 06:23:36;;;;;;;6.20;3.67;;;18.60;79.80;;;17.46;100.00;94874.31;4971984;28;20073;-70
2023/08/01 06:26:02;;;;;;;7.45;4.35;;;18.60;79.20;;;17.48;100.00;94871.41;4989092;28;20073;-70
2023/08/01 06:28:28;;;;;;;5.82;3.80;;;18.60;79.00;;;17.48;100.00;94861.56;4954258;28;20081;-70
2023/08/01 06:30:53;;;;;;;5.47;3.83;;;18.50;79.20;;;17.46;100.00;94855.72;4940554;28;20077;-70
2023/08/01 06:33:19;;;;;;;4.80;3.53;;;18.50;78.40;;;17.46;100.00;94842.41;4958095;28;20143;-69
2023/08/01 06:35:45;;;;;;;7.63;3.90;;;18.50;77.50;;;17.48;100.00;94828.84;4987646;28;20312;-69
2023/08/01 06:38:10;;;;;;;5.07;3.17;;;18.60;77.10;;;17.50;100.00;94821.41;4971318;28;20387;-70
2023/08/01 06:40:36;;;;;;;4.95;3.40;;;18.50;76.10;;;17.49;100.00;94820.63;4987015;28;20514;-70
2023/08/01 06:43:02;;;;;;;5.97;3.55;;;18.60;76.80;;;17.52;100.00;94830.72;4970108;28;20533;-69
2023/08/01 06:45:28;;;;;;;5.00;3.30;;;18.60;75.50;;;17.54;100.00;94847.22;4969289;28;20121;-71
2023/08/01 06:47:54;;;;;;;7.88;3.75;;;18.60;76.20;;;17.57;100.00;94849.34;4956232;28;20117;-69
2023/08/01 06:50:19;;;;;;;5.18;3.15;;;18.70;76.40;;;17.60;100.00;94843.47;4957594;28;20046;-69
2023/08/01 06:52:45;;;;;;;5.72;3.70;;;18.60;76.20;;;17.62;100.00;94849.34;4972938;28;20047;-70
2023/08/01 06:55:14;;;;;;;6.13;3.67;;;18.70;76.10;;;17.64;100.00;94844.56;4968500;28;20122;-70
2023/08/01 06:57:40;;;;;;;6.10;3.38;;;18.70;75.40;;;17.67;100.00;94840.59;4970435;28;20098;-69
2023/08/01 07:00:06;;;;;;;5.28;3.47;;;18.80;75.40;;;17.70;100.00;94827.59;4967764;28;20342;-70
2023/08/01 07:02:32;;;;;;;4.70;3.70;;;18.90;75.00;;;17.73;100.00;94827.06;4968215;28;20058;-69
2023/08/01 07:04:58;;;;;;;6.75;3.58;;;18.80;74.30;;;17.75;100.00;94832.91;4971558;28;20054;-70
2023/08/01 07:07:24;;;;;;;6.57;3.60;;;18.90;74.30;;;17.81;100.00;94832.91;4969322;28;20042;-69
2023/08/01 07:09:49;;;;;;;6.10;3.58;;;19.00;73.50;;;17.82;100.00;94829.19;4954182;28;20438;-70
2023/08/01 07:12:15;;;;;;;5.70;3.72;;;19.00;72.90;;;17.87;100.00;94829.19;4971031;28;20494;-69
2023/08/01 07:14:41;;;;;;;5.75;3.75;;;19.10;72.50;;;17.93;100.00;94830.81;4973550;28;20081;-69
2023/08/01 07:17:07;;;;;;;4.82;3.47;;;19.20;73.50;;;17.98;100.00;94828.13;4976554;28;20133;-71
2023/08/01 07:19:32;;;;;;;5.10;3.63;;;19.30;73.20;;;18.06;100.00;94822.28;4954402;28;20162;-69
2023/08/01 07:21:58;;;;;;;7.07;4.07;;;19.40;72.90;;;18.12;100.00;94836.41;4971691;28;20494;-67
2023/08/01 07:24:24;;;;;;;5.38;3.55;;;19.40;71.90;;;18.17;100.00;94825.75;4988999;28;20193;-69
2023/08/01 07:26:49;;;;;;;6.55;3.28;;;19.50;72.00;;;18.24;100.00;94827.06;4969862;28;20278;-70
2023/08/01 07:29:15;;;;;;;5.45;3.60;;;19.60;71.30;;;18.30;100.00;94825.97;4967792;28;20122;-70
2023/08/01 07:31:42;;;;;;;4.65;3.45;;;19.70;70.80;;;18.34;100.00;94824.41;4955848;28;20427;-70
2023/08/01 07:34:08;;;;;;;5.65;3.45;;;19.70;70.40;;;18.35;99.77;94812.69;4969286;28;20113;-69
2023/08/01 07:36:34;;;;;;;6.47;3.10;;;19.80;69.60;;;18.45;98.61;94784.44;4954520;28;20042;-70
2023/08/01 07:38:59;;;;;;;3.78;3.00;;;19.80;69.00;;;18.49;95.53;94812.91;4940649;28;20077;-69
2023/08/01 07:41:25;;;;;;;4.90;3.17;;;19.80;66.60;;;18.54;94.92;94820.88;4953703;28;20134;-69
2023/08/01 07:43:51;;;;;;;5.40;3.60;;;19.90;67.60;;;18.61;93.54;94841.94;4971121;28;20036;-70
2023/08/01 07:46:16;;;;;;;4.88;2.95;;;19.90;67.70;;;18.69;93.92;94822.75;4971385;28;20042;-70
2023/08/01 07:48:42;;;;;;;4.72;3.05;;;20.10;67.00;;;18.77;93.04;94830.19;4973031;28;20173;-70
2023/08/01 07:51:09;;;;;;;5.38;3.08;;;20.30;66.90;;;18.86;91.20;94828.56;4971903;28;20042;-70
2023/08/01 07:53:35;;;;;;;5.25;3.00;;;20.40;65.70;;;18.98;91.89;94815.72;4970206;28;20022;-69
2023/08/01 07:56:02;;;;;;;7.68;3.30;;;20.60;65.50;;;19.15;90.98;94825.25;4971695;28;20556;-69
2023/08/01 07:58:28;;;;;;;4.10;2.97;;;20.90;64.50;;;19.35;88.39;94825.16;4971251;28;20063;-70
2023/08/01 08:00:54;;;;;;;3.95;2.83;;;21.20;61.90;;;19.54;86.67;94823.50;4971601;28;20516;-69
2023/08/01 08:03:22;;;;;;;5.35;2.88;;;21.40;61.20;;;19.74;84.95;94816.44;4989403;28;20117;-70
2023/08/01 08:05:48;;;;;;;5.13;2.83;;;21.60;60.80;;;19.92;83.74;94807.75;4970552;28;20031;-71
2023/08/01 08:08:14;;;;;;;4.20;2.97;;;21.70;60.40;;;20.08;84.76;94806.53;4968220;28;20031;-69
2023/08/01 08:10:40;;;;;;;5.18;3.17;;;22.00;60.60;;;20.25;81.63;94792.00;4968318;28;20113;-70
2023/08/01 08:13:05;;;;;;;4.45;3.05;;;22.10;57.40;;;20.37;80.65;94787.88;4956885;28;20078;-70
2023/08/01 08:15:34;;;;;;;5.57;3.00;;;22.10;59.00;;;20.48;79.72;94783.25;4988061;28;20066;-70
2023/08/01 08:18:04;;;;;;;5.28;2.92;;;22.10;57.90;;;20.60;78.38;94780.22;4971232;28;20056;-71
2023/08/01 08:20:30;;;;;;;5.28;3.15;;;22.20;57.90;;;20.68;78.10;94793.72;4955666;28;20035;-68
2023/08/01 08:22:56;;;;;;;3.95;2.70;;;22.30;58.40;;;20.75;77.89;94810.19;4987554;28;20038;-70
2023/08/01 08:25:21;;;;;;;6.32;2.92;;;22.40;58.30;;;20.76;77.17;94803.78;4968468;28;20094;-70
2023/08/01 08:27:49;;;;;;;4.88;3.33;;;22.10;58.00;;;20.72;75.83;94805.44;4938542;28;20042;-69
2023/08/01 08:30:15;;;;;;;4.55;3.15;;;22.00;58.30;;;20.71;75.76;94806.50;4955248;28;20055;-70
2023/08/01 08:32:40;;;;;;;3.95;2.90;;;22.10;58.50;;;20.70;76.45;94809.47;4938642;28;20026;-70
2023/08/01 08:35:06;;;;;;;6.55;3.20;;;22.00;59.80;;;20.69;76.11;94811.34;4954382;28;20138;-70
2023/08/01 08:37:32;;;;;;;3.50;2.47;;;22.10;58.80;;;20.72;76.02;94829.47;4984533;28;20037;-69
2023/08/01 08:39:58;;;;;;;4.20;3.22;;;22.30;58.80;;;20.76;77.07;94832.38;4968208;28;20045;-67
2023/08/01 08:42:24;;;;;;;4.47;2.80;;;22.30;59.20;;;20.79;76.40;94827.25;4968068;28;20116;-70
2023/08/01 08:44:52;;;;;;;3.47;2.22;;;22.30;59.00;;;20.78;76.83;94828.34;4984809;28;20077;-70
2023/08/01 08:47:18;;;;;;;7.03;2.85;;;22.10;59.20;;;20.77;76.48;94834.75;4967944;28;20050;-71
2023/08/01 08:49:45;;;;;;;6.07;3.30;;;22.10;58.80;;;20.79;76.98;94840.63;4969353;28;20034;-70
2023/08/01 08:52:11;;;;;;;5.28;2.75;;;22.30;59.60;;;20.87;76.68;94841.91;4955441;28;20322;-70
2023/08/01 08:54:37;;;;;;;4.90;3.10;;;22.40;59.50;;;20.93;76.96;94853.31;4952353;28;20390;-70
2023/08/01 08:57:07;;;;;;;5.28;2.67;;;22.50;59.50;;;20.97;76.84;94849.00;4955059;28;20039;-70
2023/08/01 08:59:33;;;;;;;4.85;2.65;;;22.60;59.70;;;20.96;78.34;94852.75;4972846;28;20049;-70
2023/08/01 09:02:01;;;;;;;7.88;2.78;;;22.30;60.70;;;20.95;77.95;94843.13;4954959;28;20039;-70
2023/08/01 09:04:27;;;;;;;4.65;2.92;;;22.40;59.90;;;20.97;77.39;94857.81;4968825;28;20096;-70
2023/08/01 09:06:57;;;;;;;4.85;2.58;;;22.60;60.00;;;21.00;77.34;94849.22;4968530;28;20057;-70
2023/08/01 09:09:26;;;;;;;5.25;2.90;;;22.60;60.30;;;21.01;77.84;94858.84;4969068;28;20038;-70
2023/08/01 09:11:52;;;;;;;4.70;2.70;;;22.40;60.70;;;21.02;78.23;94863.09;4952755;28;20043;-71
2023/08/01 09:14:18;;;;;;;7.63;3.30;;;22.50;60.50;;;21.09;77.77;94862.78;4985189;28;20536;-71
2023/08/01 09:16:44;;;;;;;3.88;2.80;;;22.60;60.20;;;21.16;77.55;94865.09;4970050;28;20129;-71
2023/08/01 09:19:12;;;;;;;5.25;3.38;;;22.70;59.20;;;21.29;76.61;94862.56;4968727;28;20058;-71
2023/08/01 09:21:38;;;;;;;5.20;2.90;;;23.10;58.70;;;21.38;76.66;94865.41;4962879;28;20045;-70
2023/08/01 09:24:14;;;;;;;4.60;3.00;;;23.20;58.80;;;21.63;75.00;94854.34;4952523;28;20039;-70
2023/08/01 09:26:40;;;;;;;4.50;3.03;;;23.80;57.50;;;21.87;75.61;94858.84;4954672;28;20042;-70
2023/08/01 09:29:06;;;;;;;4.85;3.00;;;24.10;56.70;;;22.07;75.90;94857.78;4954164;28;20030;-69
2023/08/01 09:31:34;;;;;;;6.97;2.95;;;24.20;56.80;;;22.29;74.52;94847.25;4971880;28;20081;-70
2023/08/01 09:34:01;;;;;;;4.80;2.85;;;24.50;55.80;;;22.37;74.54;94861.84;4953800;28;20046;-70
2023/08/01 09:36:27;;;;;;;3.75;2.70;;;24.20;55.60;;;22.37;73.59;94851.94;4953759;28;20038;-70
2023/08/01 09:39:01;;;;;;;5.05;3.28;;;24.00;56.00;;;22.34;71.40;94854.41;4967912;28;20487;-71
2023/08/01 09:41:28;;;;;;;4.75;2.45;;;23.70;56.60;;;22.28;72.37;94864.41;4956906;28;20039;-70
2023/08/01 09:43:53;;;;;;;4.43;2.65;;;23.70;56.10;;;22.22;72.06;94869.06;4983104;28;20033;-70
2023/08/01 09:46:19;;;;;;;4.07;2.90;;;23.50;57.40;;;22.12;72.23;94869.19;4967316;28;20050;-71
2023/08/01 09:48:45;;;;;;;3.97;2.65;;;23.40;56.70;;;22.05;71.89;94857.28;4951420;28;20459;-70
2023/08/01 09:51:12;;;;;;;3.58;2.58;;;23.20;56.50;;;21.99;71.28;94869.91;4962715;28;20062;-70
2023/08/01 09:53:52;;;;;;;4.05;2.90;;;23.10;56.50;;;21.98;69.66;94853.06;4974398;28;20038;-69
2023/08/01 09:56:23;;;;;;;4.15;2.80;;;23.40;56.20;;;21.92;70.65;94850.72;4989741;28;20050;-70
2023/08/01 09:58:49;;;;;;;;;;;23.20;55.80;;;21.86;68.99;94844.66;4973261;28;20027;-72
2023/08/01 10:01:16;;;;;;;3.88;2.63;;;23.20;55.80;;;21.88;71.20;94869.25;4973842;28;19928;-70
2023/08/01 10:03:49;;;;;;;4.63;3.05;;;23.40;55.80;;;21.93;69.68;94852.31;4977447;28;20034;-70
2023/08/01 10:06:28;;;;;;;4.70;3.00;;;23.50;55.00;;;21.93;68.17;94845.09;4967963;28;20046;-69
2023/08/01 10:08:54;;;;;;;5.18;3.00;;;23.20;55.10;;;21.88;70.25;94857.75;4973558;28;20117;-71
2023/08/01 10:11:21;;;;;;;7.45;3.05;;;23.10;56.10;;;21.79;69.52;94854.94;4957516;28;20041;-71
2023/08/01 10:13:47;;;;;;;4.97;3.00;;;22.80;56.90;;;21.65;70.13;94875.47;4956984;28;20133;-70